Time;durP1;ratioP1;P1;durP2;ratioP2;P2;SDS_P1;SDS_P2;PMS_P1;PMS_P2;Temp;Humidity;BMP_temperature;BMP_pressure;BME280_temperature;BME280_humidity;BME280_pressure;Samples;Min_cycle;Max_cycle;Signal;HPM_P1;HPM_P2
2024/02/14 00:00:03;;;;;;;0.30;0.17;;;;;;;7.75;92.63;100607.16;5051067;28;20528;-50
2024/02/14 00:02:30;;;;;;;0.30;0.20;;;;;;;7.83;92.99;100610.63;5051342;28;20473;-50
2024/02/14 00:04:56;;;;;;;0.30;0.20;;;;;;;7.77;91.51;100598.31;5051130;28;21026;-50
2024/02/14 00:07:23;;;;;;;0.30;0.20;;;;;;;7.94;90.63;100588.38;5051169;28;20819;-50
2024/02/14 00:09:49;;;;;;;0.30;0.20;;;;;;;8.15;89.96;100584.59;5050275;28;20446;-49
2024/02/14 00:12:15;;;;;;;0.30;0.20;;;;;;;8.28;87.90;100588.81;5043466;28;20517;-51
2024/02/14 00:14:42;;;;;;;0.30;0.20;;;;;;;8.38;87.58;100576.34;5031698;28;20487;-50
2024/02/14 00:17:10;;;;;;;0.30;0.20;;;;;;;8.49;86.32;100582.34;5051577;28;20458;-49
2024/02/14 00:19:36;;;;;;;0.30;0.20;;;;;;;8.58;85.19;100579.56;5051219;28;20447;-49
2024/02/14 00:22:03;;;;;;;0.30;0.20;;;;;;;8.59;85.30;100583.94;5051049;28;20467;-49
2024/02/14 00:24:29;;;;;;;0.30;0.20;;;;;;;8.52;84.85;100590.25;5050966;28;20848;-49
2024/02/14 00:26:56;;;;;;;0.30;0.20;;;;;;;8.60;84.59;100592.78;5051115;28;20527;-50
2024/02/14 00:29:24;;;;;;;0.30;0.20;;;;;;;8.76;84.17;100593.41;5050946;28;20447;-49
2024/02/14 00:31:50;;;;;;;0.40;0.20;;;;;;;8.76;84.33;100591.63;5054860;28;20467;-50
2024/02/14 00:34:17;;;;;;;0.30;0.20;;;;;;;8.87;83.48;100591.47;5054783;28;20542;-50
2024/02/14 00:36:43;;;;;;;0.30;0.20;;;;;;;8.84;84.00;100580.91;5054662;28;20865;-49
2024/02/14 00:39:10;;;;;;;0.30;0.20;;;;;;;8.78;83.87;100581.91;5054654;28;20549;-50
2024/02/14 00:41:37;;;;;;;0.30;0.20;;;;;;;8.63;83.68;100579.47;5052036;28;20470;-50
2024/02/14 00:44:03;;;;;;;0.30;0.20;;;;;;;8.78;83.41;100573.06;5038243;28;20467;-50
2024/02/14 00:46:33;;;;;;;0.30;0.20;;;;;;;8.78;83.58;100562.47;5048099;28;20493;-50
2024/02/14 00:49:05;;;;;;;0.30;0.20;;;;;;;8.75;83.03;100565.16;5054365;28;20478;-50
2024/02/14 00:51:33;;;;;;;0.30;0.20;;;;;;;8.74;82.78;100556.31;5054171;28;20506;-50
2024/02/14 00:54:03;;;;;;;0.30;0.20;;;;;;;8.83;83.12;100555.31;5054202;28;20485;-50
2024/02/14 00:56:36;;;;;;;0.30;0.20;;;;;;;8.78;82.40;100550.09;5054368;28;20451;-50
2024/02/14 00:59:03;;;;;;;0.30;0.20;;;;;;;8.78;83.34;100568.66;5054296;28;20504;-49
2024/02/14 01:01:31;;;;;;;0.30;0.20;;;;;;;8.85;82.32;100564.97;5054232;28;20538;-50
2024/02/14 01:03:58;;;;;;;0.30;0.20;;;;;;;8.98;82.58;100564.75;5054216;28;20457;-50
2024/02/14 01:06:30;;;;;;;0.30;0.20;;;;;;;8.74;82.82;100563.41;5052646;28;20500;-49
2024/02/14 01:09:06;;;;;;;0.30;0.20;;;;;;;8.66;82.99;100560.03;5053923;28;20451;-50
2024/02/14 01:11:33;;;;;;;0.30;0.20;;;;;;;8.76;83.06;100546.56;5050756;28;21023;-50
2024/02/14 01:14:01;;;;;;;0.30;0.20;;;;;;;8.71;83.57;100542.25;5033661;28;20489;-49
2024/02/14 01:16:31;;;;;;;0.30;0.20;;;;;;;8.61;83.57;100554.78;5050509;28;20447;-49
2024/02/14 01:19:01;;;;;;;0.30;0.20;;;;;;;8.73;83.43;100554.56;5053890;28;20451;-49
2024/02/14 01:21:28;;;;;;;0.30;0.20;;;;;;;8.78;82.55;100550.09;5053602;28;20451;-50
2024/02/14 01:23:55;;;;;;;0.30;0.20;;;;;;;8.65;83.25;100550.31;5053644;28;20455;-50
2024/02/14 01:26:25;;;;;;;0.30;0.20;;;;;;;8.65;83.42;100552.97;5053609;28;20583;-49
2024/02/14 01:28:57;;;;;;;0.30;0.20;;;;;;;8.76;83.78;100546.56;5053812;28;21025;-50
2024/02/14 01:31:28;;;;;;;0.30;0.20;;;;;;;8.72;82.80;100544.00;5040494;28;20974;-50
2024/02/14 01:34:01;;;;;;;0.30;0.20;;;;;;;8.71;82.74;100534.31;5053281;28;20447;-50
2024/02/14 01:36:32;;;;;;;0.30;0.20;;;;;;;8.73;82.64;100546.63;5053604;28;20454;-49
2024/02/14 01:39:03;;;;;;;0.30;0.20;;;;;;;8.67;83.15;100537.94;5053335;28;20542;-50
2024/02/14 01:41:30;;;;;;;0.30;0.20;;;;;;;8.73;83.20;100545.75;5050947;28;20546;-51
2024/02/14 01:44:00;;;;;;;0.30;0.20;;;;;;;8.66;83.28;100544.13;5037224;28;20466;-50
2024/02/14 01:46:28;;;;;;;0.30;0.20;;;;;;;8.53;84.06;100556.69;5047616;28;20524;-50
2024/02/14 01:48:56;;;;;;;0.30;0.20;;;;;;;8.54;84.27;100554.03;5053187;28;20516;-49
2024/02/14 01:51:27;;;;;;;0.30;0.20;;;;;;;8.50;84.18;100551.44;5053041;28;20870;-50
2024/02/14 01:53:58;;;;;;;0.40;0.30;;;;;;;8.50;84.42;100533.78;5053056;28;20443;-49
2024/02/14 01:56:27;;;;;;;0.30;0.20;;;;;;;8.52;84.87;100533.75;5053293;28;20978;-49
2024/02/14 01:58:55;;;;;;;0.30;0.20;;;;;;;8.55;84.42;100526.63;5052824;28;20451;-49
2024/02/14 02:01:24;;;;;;;0.30;0.20;;;;;;;8.57;84.68;100527.47;5052691;28;20457;-50
2024/02/14 02:03:55;;;;;;;0.30;0.20;;;;;;;8.79;83.87;100513.88;5053073;28;20958;-50
2024/02/14 02:06:22;;;;;;;0.30;0.20;;;;;;;8.69;84.15;100513.13;5053102;28;20488;-50
2024/02/14 02:08:58;;;;;;;0.30;0.20;;;;;;;8.68;83.88;100500.78;5052805;28;20458;-50
2024/02/14 02:11:30;;;;;;;0.30;0.20;;;;;;;8.85;83.77;100498.72;5051687;28;20446;-49
2024/02/14 02:14:10;;;;;;;0.30;0.20;;;;;;;8.81;84.00;100501.47;5041374;28;20928;-49
2024/02/14 02:16:38;;;;;;;0.30;0.20;;;;;;;8.67;84.58;100509.66;5052739;28;20496;-49
2024/02/14 02:19:08;;;;;;;0.30;0.20;;;;;;;8.63;85.22;100502.63;5052980;28;20508;-49
2024/02/14 02:21:49;;;;;;;0.40;0.20;;;;;;;8.64;85.05;100508.84;5052466;28;20462;-50
2024/02/14 02:24:21;;;;;;;0.30;0.20;;;;;;;8.76;84.94;100505.94;5052929;28;20450;-50
2024/02/14 02:26:48;;;;;;;0.30;0.20;;;;;;;8.61;85.40;100507.97;5039772;28;20494;-51
2024/02/14 02:29:16;;;;;;;3.90;3.60;;;;;;;8.73;84.96;100506.00;5052434;28;20825;-50
2024/02/14 02:31:42;;;;;;;0.30;0.20;;;;;;;8.82;84.96;100509.38;5052505;28;20478;-51
2024/02/14 02:34:10;;;;;;;0.30;0.20;;;;;;;8.88;84.40;100516.31;5052394;28;20451;-50
2024/02/14 02:36:39;;;;;;;0.30;0.20;;;;;;;8.92;84.45;100511.88;5053031;28;20438;-50
2024/02/14 02:39:05;;;;;;;0.30;0.20;;;;;;;8.94;84.22;100521.53;5052206;28;20797;-50
2024/02/14 02:41:33;;;;;;;0.30;0.20;;;;;;;8.92;83.91;100509.22;5050471;28;20975;-51
2024/02/14 02:44:01;;;;;;;0.30;0.20;;;;;;;8.95;84.33;100517.09;5033383;28;20447;-50
2024/02/14 02:46:28;;;;;;;0.30;0.20;;;;;;;9.11;83.98;100511.47;5052657;28;20518;-50
2024/02/14 02:48:54;;;;;;;0.30;0.20;;;;;;;9.04;83.89;100514.25;5052035;28;20536;-51
2024/02/14 02:51:22;;;;;;;0.30;0.20;;;;;;;9.02;83.76;100508.13;5067366;22;20890;-49
2024/02/14 02:53:49;;;;;;;0.30;0.20;;;;;;;9.08;83.97;100511.56;5038704;28;20451;-49
2024/02/14 02:56:15;;;;;;;0.30;0.20;;;;;;;9.05;84.08;100516.03;5042623;28;20440;-50
2024/02/14 02:58:44;;;;;;;0.30;0.20;;;;;;;9.10;84.59;100517.69;5048731;28;20481;-50
2024/02/14 03:01:13;;;;;;;0.30;0.20;;;;;;;9.05;84.58;100516.91;5049505;28;20467;-48
2024/02/14 03:03:41;;;;;;;0.30;0.20;;;;;;;8.98;84.33;100517.91;5051824;28;20453;-48
2024/02/14 03:06:07;;;;;;;0.30;0.20;;;;;;;8.94;84.85;100518.88;5051857;28;20495;-48
2024/02/14 03:08:34;;;;;;;0.30;0.20;;;;;;;9.07;84.73;100523.06;5051638;28;20850;-50
2024/02/14 03:11:05;;;;;;;0.30;0.20;;;;;;;9.12;84.48;100518.53;5051792;28;20493;-49
2024/02/14 03:13:32;;;;;;;0.30;0.20;;;;;;;9.14;84.34;100516.72;5051670;28;20993;-49
2024/02/14 03:15:59;;;;;;;0.30;0.20;;;;;;;9.09;84.60;100512.44;5051635;28;20446;-48
2024/02/14 03:18:26;;;;;;;0.30;0.20;;;;;;;9.11;84.49;100508.84;5051774;28;20496;-50
2024/02/14 03:20:55;;;;;;;0.30;0.20;;;;;;;9.14;84.67;100511.41;5051754;28;20478;-49
2024/02/14 03:23:23;;;;;;;0.30;0.20;;;;;;;9.07;85.09;100509.81;5051537;28;20451;-50
2024/02/14 03:25:51;;;;;;;0.30;0.20;;;;;;;9.14;84.23;100511.41;5051481;28;21025;-49
2024/02/14 03:28:18;;;;;;;0.30;0.20;;;;;;;9.09;84.98;100520.38;5051430;28;20450;-50
2024/02/14 03:30:44;;;;;;;0.30;0.20;;;;;;;8.96;85.55;100517.06;5051678;28;20474;-50
2024/02/14 03:33:11;;;;;;;0.30;0.20;;;;;;;9.08;85.23;100519.50;5051646;28;20451;-49
2024/02/14 03:35:38;;;;;;;0.30;0.20;;;;;;;9.04;85.29;100519.56;5051629;28;20446;-49
2024/02/14 03:38:04;;;;;;;0.30;0.20;;;;;;;8.92;85.76;100510.09;5038169;28;20979;-50
2024/02/14 03:40:31;;;;;;;0.30;0.20;;;;;;;8.87;86.25;100506.63;5050051;28;20961;-50
2024/02/14 03:42:58;;;;;;;0.30;0.20;;;;;;;8.91;86.51;100513.66;5051323;28;20486;-48
2024/02/14 03:45:24;;;;;;;0.30;0.20;;;;;;;8.97;86.73;100518.81;5051072;28;21064;-49
2024/02/14 03:47:51;;;;;;;0.30;0.20;;;;;;;9.03;86.15;100524.00;5051205;28;21018;-49
2024/02/14 03:50:17;;;;;;;0.30;0.20;;;;;;;9.01;86.60;100527.59;5051291;28;20536;-49
2024/02/14 03:52:44;;;;;;;0.30;0.20;;;;;;;9.07;86.55;100530.16;5051170;28;20463;-50
2024/02/14 03:55:13;;;;;;;0.30;0.20;;;;;;;9.10;86.20;100532.72;5051247;28;20863;-50
2024/02/14 03:57:40;;;;;;;0.30;0.20;;;;;;;9.26;85.75;100538.63;5051433;28;20447;-49
2024/02/14 04:00:10;;;;;;;0.30;0.20;;;;;;;9.32;85.21;100533.19;5051480;28;20853;-49
2024/02/14 04:02:37;;;;;;;0.30;0.20;;;;;;;9.28;85.77;100535.03;5051788;28;20470;-49
2024/02/14 04:05:07;;;;;;;0.30;0.20;;;;;;;9.38;85.32;100543.69;5052463;28;20537;-49
2024/02/14 04:07:34;;;;;;;0.30;0.20;;;;;;;9.34;84.98;100556.16;5055059;28;20963;-49
2024/02/14 04:10:00;;;;;;;0.30;0.20;;;;;;;9.34;85.45;100555.28;5055066;28;20447;-50
2024/02/14 04:12:27;;;;;;;0.30;0.20;;;;;;;9.33;85.76;100559.69;5055386;28;20547;-49
2024/02/14 04:14:53;;;;;;;0.30;0.20;;;;;;;9.38;85.27;100560.47;5055365;28;20871;-49
2024/02/14 04:17:20;;;;;;;0.30;0.20;;;;;;;9.30;86.02;100556.22;5055487;28;20454;-48
2024/02/14 04:19:46;;;;;;;0.30;0.20;;;;;;;9.33;85.98;100558.84;5055305;28;20508;-49
2024/02/14 04:22:13;;;;;;;0.30;0.20;;;;;;;9.24;86.98;100567.81;5055105;28;20553;-50
2024/02/14 04:24:39;;;;;;;0.30;0.20;;;;;;;9.52;86.43;100570.81;5054739;28;20500;-51
2024/02/14 04:27:06;;;;;;;0.30;0.20;;;;;;;9.44;85.98;100570.09;5054816;28;20490;-49
2024/02/14 04:29:33;;;;;;;0.30;0.20;;;;;;;9.56;85.63;100568.97;5055082;28;20454;-49
2024/02/14 04:32:01;;;;;;;0.30;0.20;;;;;;;9.54;85.85;100570.78;5054847;28;20507;-49
2024/02/14 04:34:27;;;;;;;0.30;0.20;;;;;;;9.46;86.13;100563.88;5054810;28;20451;-49
2024/02/14 04:36:54;;;;;;;0.30;0.20;;;;;;;9.58;85.29;100562.72;5055411;28;20462;-50
2024/02/14 04:39:21;;;;;;;0.30;0.20;;;;;;;9.58;85.52;100554.75;5054546;28;20490;-50
2024/02/14 04:41:49;;;;;;;0.30;0.20;;;;;;;9.86;85.23;100559.50;5054878;28;20467;-49
2024/02/14 04:44:27;;;;;;;0.30;0.20;;;;;;;9.73;84.91;100553.56;5054546;28;20803;-50
2024/02/14 04:46:53;;;;;;;0.30;0.20;;;;;;;9.65;85.75;100544.91;5054280;28;20489;-49
2024/02/14 04:49:20;;;;;;;0.30;0.20;;;;;;;9.55;86.56;100536.25;5054514;28;20508;-50
2024/02/14 04:51:47;;;;;;;0.30;0.20;;;;;;;9.43;87.02;100536.50;5054339;28;20576;-49
2024/02/14 04:54:16;;;;;;;0.30;0.20;;;;;;;9.66;87.03;100536.03;5054354;28;20481;-49
2024/02/14 04:56:42;;;;;;;0.30;0.20;;;;;;;9.67;86.58;100536.00;5054583;28;20497;-50
2024/02/14 04:59:09;;;;;;;0.30;0.20;;;;;;;9.75;86.77;100538.50;5054359;28;20498;-50
2024/02/14 05:01:36;;;;;;;0.30;0.20;;;;;;;9.63;87.21;100526.38;5054141;28;20498;-49
2024/02/14 05:04:03;;;;;;;0.30;0.20;;;;;;;9.76;86.82;100534.94;5054272;28;20455;-50
2024/02/14 05:06:29;;;;;;;0.30;0.20;;;;;;;9.73;87.15;100537.63;5054323;28;20494;-50
2024/02/14 05:08:56;;;;;;;0.30;0.20;;;;;;;9.77;87.04;100542.88;5054127;28;20447;-50
2024/02/14 05:11:23;;;;;;;0.30;0.20;;;;;;;9.75;87.61;100555.31;5054045;28;20470;-48
2024/02/14 05:13:50;;;;;;;0.30;0.20;;;;;;;9.86;87.17;100549.75;5053950;28;20935;-49
2024/02/14 05:16:20;;;;;;;0.30;0.20;;;;;;;9.87;86.76;100547.97;5052661;28;20500;-49
2024/02/14 05:18:47;;;;;;;0.30;0.20;;;;;;;9.78;87.77;100555.25;5053818;28;20478;-48
2024/02/14 05:21:14;;;;;;;0.30;0.20;;;;;;;9.88;87.36;100545.31;5053865;28;20474;-49
2024/02/14 05:23:41;;;;;;;3.17;2.83;;;;;;;9.82;87.31;100542.75;5053609;28;20482;-49
2024/02/14 05:26:11;;;;;;;0.30;0.20;;;;;;;9.73;88.06;100541.19;5053651;28;20594;-49
2024/02/14 05:28:37;;;;;;;0.30;0.20;;;;;;;9.83;87.84;100544.50;5053700;28;20475;-48
2024/02/14 05:31:05;;;;;;;0.30;0.20;;;;;;;9.86;87.71;100546.22;5053501;28;20474;-50
2024/02/14 05:33:31;;;;;;;0.30;0.20;;;;;;;9.80;87.76;100553.41;5053764;28;20936;-48
2024/02/14 05:35:58;;;;;;;0.30;0.20;;;;;;;9.91;87.62;100558.50;5053636;28;20534;-48
2024/02/14 05:38:25;;;;;;;0.30;0.20;;;;;;;9.87;87.73;100566.56;5053604;28;20450;-49
2024/02/14 05:40:51;;;;;;;0.30;0.20;;;;;;;9.97;87.12;100560.16;5053347;28;21010;-49
2024/02/14 05:43:21;;;;;;;0.30;0.20;;;;;;;9.90;87.63;100567.38;5052364;28;20565;-49
2024/02/14 05:45:47;;;;;;;0.30;0.20;;;;;;;9.98;87.62;100573.38;5053172;28;20494;-49
2024/02/14 05:48:14;;;;;;;0.30;0.20;;;;;;;9.90;88.27;100570.03;5053567;28;20462;-49
2024/02/14 05:50:41;;;;;;;0.30;0.20;;;;;;;9.79;88.64;100562.28;5053231;28;20482;-49
2024/02/14 05:53:08;;;;;;;0.30;0.20;;;;;;;9.92;89.18;100567.34;5053183;28;21047;-50
2024/02/14 05:55:34;;;;;;;0.30;0.20;;;;;;;10.01;89.11;100565.38;5053353;28;20458;-50
2024/02/14 05:58:01;;;;;;;0.30;0.20;;;;;;;9.80;90.06;100557.84;5053210;28;20477;-49
2024/02/14 06:00:27;;;;;;;0.30;0.20;;;;;;;9.93;90.41;100561.13;5053308;28;20455;-49
2024/02/14 06:02:55;;;;;;;0.30;0.20;;;;;;;10.05;88.93;100555.56;5053319;28;20478;-50
2024/02/14 06:05:22;;;;;;;0.30;0.20;;;;;;;10.10;88.85;100561.63;5052922;28;21006;-49
2024/02/14 06:07:50;;;;;;;0.30;0.20;;;;;;;9.96;89.78;100559.28;5052754;28;20490;-48
2024/02/14 06:10:17;;;;;;;0.30;0.20;;;;;;;10.00;89.38;100558.28;5052675;28;21042;-50
2024/02/14 06:12:44;;;;;;;0.30;0.20;;;;;;;10.01;89.77;100559.19;5052901;28;20458;-50
2024/02/14 06:15:11;;;;;;;0.30;0.20;;;;;;;10.06;89.90;100571.44;5052619;28;20443;-47
2024/02/14 06:17:38;;;;;;;0.30;0.20;;;;;;;9.91;89.87;100576.22;5052792;28;20492;-49
2024/02/14 06:20:07;;;;;;;0.30;0.20;;;;;;;9.96;90.01;100583.16;5052692;28;20465;-49
2024/02/14 06:22:34;;;;;;;0.30;0.20;;;;;;;9.96;90.02;100577.84;5052741;28;20482;-50
2024/02/14 06:25:13;;;;;;;0.30;0.20;;;;;;;9.98;90.29;100585.78;5052636;28;20943;-48
2024/02/14 06:27:39;;;;;;;0.30;0.20;;;;;;;9.91;90.53;100581.53;5051983;28;20497;-50
2024/02/14 06:30:07;;;;;;;0.30;0.20;;;;;;;10.04;90.58;100578.59;5052739;28;20491;-49
2024/02/14 06:32:34;;;;;;;0.30;0.20;;;;;;;9.96;91.22;100583.16;5052616;28;20509;-48
2024/02/14 06:35:02;;;;;;;0.30;0.20;;;;;;;9.93;91.87;100583.25;5052493;28;20822;-50
2024/02/14 06:37:29;;;;;;;0.30;0.20;;;;;;;9.98;91.63;100583.13;5051055;28;20449;-48
2024/02/14 06:40:01;;;;;;;0.30;0.20;;;;;;;10.00;92.09;100584.84;5052055;28;20542;-50
2024/02/14 06:42:28;;;;;;;0.30;0.20;;;;;;;9.91;92.79;100590.38;5052376;28;20479;-48
2024/02/14 06:44:55;;;;;;;0.30;0.20;;;;;;;10.07;92.47;100585.59;5052040;28;20499;-49
2024/02/14 06:47:22;;;;;;;0.30;0.20;;;;;;;10.31;91.68;100585.09;5052140;28;20502;-48
2024/02/14 06:49:48;;;;;;;0.33;0.23;;;;;;;10.07;92.15;100596.22;5052247;28;20447;-50
2024/02/14 06:52:15;;;;;;;0.30;0.20;;;;;;;10.14;91.65;100602.25;5051800;28;20493;-50
2024/02/14 06:54:41;;;;;;;0.30;0.20;;;;;;;10.14;92.91;100599.59;5051843;28;20478;-49
2024/02/14 06:57:08;;;;;;;0.30;0.20;;;;;;;10.06;93.27;100599.78;5051928;28;20477;-50
2024/02/14 06:59:36;;;;;;;0.30;0.20;;;;;;;10.07;92.76;100598.88;5052309;28;20447;-50
2024/02/14 07:02:03;;;;;;;0.30;0.20;;;;;;;10.00;93.51;100597.25;5051929;28;20467;-49
2024/02/14 07:04:39;;;;;;;0.30;0.20;;;;;;;9.90;94.11;100609.00;5052096;28;20459;-50
2024/02/14 07:07:08;;;;;;;0.40;0.30;;;;;;;9.89;93.59;100610.78;5051721;28;20580;-49
2024/02/14 07:09:36;;;;;;;0.30;0.20;;;;;;;9.96;94.31;100612.38;5052031;28;20485;-51
2024/02/14 07:12:03;;;;;;;0.30;0.20;;;;;;;10.03;94.23;100623.78;5051817;28;20475;-50
2024/02/14 07:14:30;;;;;;;0.30;0.20;;;;;;;9.98;93.75;100620.31;5051876;28;20483;-50
2024/02/14 07:16:56;;;;;;;0.30;0.20;;;;;;;9.94;94.29;100623.94;5051821;28;20447;-50
2024/02/14 07:19:23;;;;;;;0.30;0.20;;;;;;;10.03;94.61;100616.69;5051747;28;20939;-49
2024/02/14 07:21:49;;;;;;;0.30;0.20;;;;;;;10.03;94.23;100629.09;5051501;28;20470;-50
2024/02/14 07:24:16;;;;;;;0.30;0.20;;;;;;;10.06;94.09;100631.66;5051480;28;20866;-49
2024/02/14 07:26:44;;;;;;;0.30;0.20;;;;;;;10.19;93.52;100619.88;5051473;28;20489;-50
2024/02/14 07:29:11;;;;;;;0.30;0.20;;;;;;;10.03;94.23;100621.13;5051624;28;20447;-50
2024/02/14 07:31:37;;;;;;;0.30;0.20;;;;;;;10.21;93.26;100623.41;5051520;28;21030;-50
2024/02/14 07:34:04;;;;;;;0.30;0.20;;;;;;;10.16;94.05;100627.91;5051589;28;20538;-51
2024/02/14 07:36:35;;;;;;;0.30;0.20;;;;;;;10.17;93.91;100626.13;5051774;28;20864;-51
2024/02/14 07:39:02;;;;;;;0.30;0.20;;;;;;;10.22;93.48;100621.63;5051129;28;20446;-49
2024/02/14 07:41:28;;;;;;;0.30;0.20;;;;;;;10.13;93.67;100635.91;5051242;28;20971;-49
2024/02/14 07:43:56;;;;;;;0.30;0.20;;;;;;;10.24;93.85;100633.06;5051488;28;20461;-50
2024/02/14 07:46:26;;;;;;;0.30;0.20;;;;;;;10.08;94.55;100629.84;5051174;28;20458;-49
2024/02/14 07:48:53;;;;;;;2.43;2.30;;;;;;;10.28;94.21;100642.72;5051243;28;20442;-50
2024/02/14 07:51:20;;;;;;;0.30;0.20;;;;;;;10.16;94.34;100638.53;5051391;28;20482;-50
2024/02/14 07:53:46;;;;;;;0.30;0.20;;;;;;;10.34;93.77;100639.94;5051365;28;20446;-50
2024/02/14 07:56:13;;;;;;;0.30;0.20;;;;;;;10.38;95.20;100644.28;5051600;28;20962;-50
2024/02/14 07:58:39;;;;;;;0.30;0.20;;;;;;;10.25;94.36;100642.78;5051381;28;20951;-50
2024/02/14 08:01:06;;;;;;;0.30;0.20;;;;;;;10.36;94.29;100652.28;5051412;28;20549;-50
2024/02/14 08:03:33;;;;;;;0.30;0.20;;;;;;;10.35;94.51;100649.66;5051262;28;20455;-50
2024/02/14 08:06:00;;;;;;;0.30;0.20;;;;;;;10.43;94.64;100646.84;5051307;28;20943;-50
2024/02/14 08:08:27;;;;;;;0.87;0.87;;;;;;;10.60;93.80;100656.19;5051095;28;20491;-49
2024/02/14 08:10:54;;;;;;;0.30;0.20;;;;;;;10.35;94.08;100652.31;5051564;28;20498;-50
2024/02/14 08:13:21;;;;;;;0.30;0.20;;;;;;;10.36;95.19;100654.06;5051091;28;20421;-49
2024/02/14 08:15:48;;;;;;;0.30;0.20;;;;;;;10.36;95.49;100662.03;5051059;28;20532;-50
2024/02/14 08:18:15;;;;;;;0.30;0.20;;;;;;;10.36;94.71;100654.94;5051255;28;20482;-50
2024/02/14 08:20:42;;;;;;;0.30;0.20;;;;;;;10.34;95.30;100651.44;5051002;28;20554;-50
2024/02/14 08:23:08;;;;;;;0.30;0.20;;;;;;;10.49;96.19;100650.22;5050897;28;20450;-49
2024/02/14 08:25:35;;;;;;;0.30;0.20;;;;;;;10.45;96.00;100639.72;5051251;28;20474;-50
2024/02/14 08:28:02;;;;;;;0.30;0.20;;;;;;;10.34;96.33;100643.47;5050843;28;21116;-49
2024/02/14 08:30:29;;;;;;;0.30;0.20;;;;;;;10.51;95.58;100650.19;5049834;28;20476;-49
2024/02/14 08:32:56;;;;;;;0.30;0.20;;;;;;;10.37;96.28;100651.38;5051035;28;20489;-50
2024/02/14 08:35:23;;;;;;;0.30;0.20;;;;;;;10.45;96.26;100655.66;5050883;28;21030;-49
2024/02/14 08:37:49;;;;;;;0.30;0.20;;;;;;;10.40;96.79;100655.75;5049518;28;20955;-50
2024/02/14 08:40:16;;;;;;;0.30;0.20;;;;;;;10.53;95.65;100651.91;5050809;28;20446;-50
2024/02/14 08:42:42;;;;;;;0.30;0.20;;;;;;;10.77;95.96;100654.91;5050809;28;20505;-50
2024/02/14 08:45:10;;;;;;;0.30;0.20;;;;;;;10.66;95.80;100649.84;5050647;28;20883;-50
2024/02/14 08:47:37;;;;;;;0.30;0.20;;;;;;;10.69;95.62;100647.13;5050707;28;21006;-50
2024/02/14 08:50:04;;;;;;;0.30;0.20;;;;;;;10.72;95.42;100649.72;5050995;28;20526;-50
2024/02/14 08:52:32;;;;;;;0.30;0.20;;;;;;;10.65;95.59;100648.09;5054423;28;20532;-52
2024/02/14 08:54:59;;;;;;;0.30;0.20;;;;;;;10.78;95.68;100649.56;5054269;28;20485;-51
2024/02/14 08:57:26;;;;;;;0.30;0.20;;;;;;;10.79;96.10;100653.97;5054185;28;20446;-51
2024/02/14 08:59:52;;;;;;;0.30;0.20;;;;;;;10.66;96.05;100657.81;5054300;28;20891;-51
2024/02/14 09:02:19;;;;;;;0.30;0.20;;;;;;;10.71;95.66;100657.72;5054271;28;20481;-52
2024/02/14 09:04:47;;;;;;;0.30;0.20;;;;;;;10.80;95.17;100663.69;5054589;28;20508;-51
2024/02/14 09:07:13;;;;;;;0.30;0.20;;;;;;;10.58;96.42;100652.69;5054124;28;20494;-52
2024/02/14 09:09:40;;;;;;;0.30;0.20;;;;;;;10.61;96.18;100660.59;5053927;28;20528;-52
2024/02/14 09:12:07;;;;;;;0.30;0.20;;;;;;;10.69;95.90;100660.44;5053822;28;20502;-52
2024/02/14 09:14:34;;;;;;;0.30;0.20;;;;;;;10.72;95.84;100660.34;5054355;28;20457;-51
2024/02/14 09:17:01;;;;;;;0.30;0.20;;;;;;;10.79;95.82;100661.06;5053817;28;20443;-52
2024/02/14 09:19:28;;;;;;;0.30;0.20;;;;;;;10.92;95.30;100657.22;5054132;28;20450;-52
2024/02/14 09:21:55;;;;;;;0.30;0.20;;;;;;;10.91;94.70;100655.47;5053915;28;20513;-52
2024/02/14 09:24:22;;;;;;;0.30;0.20;;;;;;;10.89;94.47;100652.84;5053831;28;20457;-52
2024/02/14 09:26:48;;;;;;;0.30;0.20;;;;;;;11.06;94.67;100659.53;5053751;28;20525;-52
2024/02/14 09:29:15;;;;;;;0.30;0.20;;;;;;;11.51;93.35;100662.81;5053974;28;20821;-52
2024/02/14 09:31:42;;;;;;;0.30;0.20;;;;;;;11.29;93.29;100673.16;5053869;28;20482;-52
2024/02/14 09:34:10;;;;;;;0.30;0.20;;;;;;;11.31;93.73;100670.44;5053535;28;20965;-52
2024/02/14 09:36:37;;;;;;;0.30;0.20;;;;;;;11.34;93.11;100673.03;5053905;28;20454;-52
2024/02/14 09:39:07;;;;;;;0.30;0.20;;;;;;;11.33;93.66;100657.97;5053647;28;20498;-52
2024/02/14 09:41:40;;;;;;;0.30;0.20;;;;;;;11.40;94.19;100654.25;5053431;28;21404;-52
2024/02/14 09:44:07;;;;;;;0.30;0.20;;;;;;;11.53;93.26;100661.88;5053780;28;20487;-52
2024/02/14 09:46:36;;;;;;;0.30;0.20;;;;;;;11.72;92.33;100666.69;5053449;28;20518;-52
2024/02/14 09:49:05;;;;;;;0.30;0.20;;;;;;;11.65;92.14;100659.78;5053546;28;20490;-52
2024/02/14 09:51:32;;;;;;;0.30;0.20;;;;;;;11.74;91.55;100657.75;5053336;28;20849;-52
2024/02/14 09:54:00;;;;;;;0.30;0.20;;;;;;;11.56;92.21;100660.91;5051856;28;20450;-52
2024/02/14 09:56:29;;;;;;;0.30;0.20;;;;;;;11.42;92.79;100657.75;5053321;28;20456;-51
2024/02/14 09:58:56;;;;;;;0.30;0.20;;;;;;;11.52;93.73;100662.78;5053230;28;20474;-52
2024/02/14 10:01:25;;;;;;;0.30;0.20;;;;;;;11.70;92.18;100666.75;5053238;28;20474;-51
2024/02/14 10:03:52;;;;;;;0.30;0.20;;;;;;;11.69;92.56;100661.47;5052313;28;20459;-52
2024/02/14 10:06:21;;;;;;;0.30;0.20;;;;;;;11.85;92.48;100666.34;5052991;28;20455;-52
2024/02/14 10:08:49;;;;;;;0.30;0.20;;;;;;;11.73;92.32;100663.13;5053048;28;20472;-52
2024/02/14 10:11:31;;;;;;;0.30;0.20;;;;;;;11.81;91.59;100672.69;5053073;28;20494;-52
2024/02/14 10:14:02;;;;;;;0.30;0.20;;;;;;;11.80;92.47;100667.41;5052945;28;20943;-52
2024/02/14 10:16:30;;;;;;;0.30;0.20;;;;;;;12.06;91.69;100675.53;5052858;28;20451;-52
2024/02/14 10:18:56;;;;;;;0.30;0.20;;;;;;;12.10;91.81;100669.19;5052815;28;20450;-52
2024/02/14 10:21:25;;;;;;;0.30;0.20;;;;;;;12.22;91.29;100673.31;5052829;28;20544;-52
2024/02/14 10:23:52;;;;;;;0.30;0.20;;;;;;;12.60;90.48;100679.25;5052865;28;20486;-51
2024/02/14 10:26:20;;;;;;;0.30;0.20;;;;;;;12.58;90.88;100679.31;5052779;28;20462;-52
2024/02/14 10:28:46;;;;;;;0.30;0.20;;;;;;;12.83;89.87;100682.09;5052675;28;20465;-52
2024/02/14 10:31:16;;;;;;;0.30;0.20;;;;;;;12.65;89.46;100694.22;5052427;28;20474;-52
2024/02/14 10:33:43;;;;;;;0.30;0.20;;;;;;;12.64;89.09;100695.16;5052755;28;20492;-52
2024/02/14 10:36:12;;;;;;;0.30;0.20;;;;;;;12.79;88.61;100691.13;5052624;28;20533;-52
2024/02/14 10:38:39;;;;;;;0.30;0.20;;;;;;;12.84;88.46;100686.50;5052565;28;20521;-52
2024/02/14 10:41:07;;;;;;;0.30;0.20;;;;;;;12.91;88.78;100687.22;5052463;28;20478;-52
2024/02/14 10:43:38;;;;;;;0.30;0.20;;;;;;;13.10;88.09;100688.34;5052470;28;21029;-51
2024/02/14 10:46:11;;;;;;;0.30;0.20;;;;;;;12.87;88.13;100694.41;5052131;28;20520;-52
2024/02/14 10:48:38;;;;;;;0.30;0.20;;;;;;;12.73;89.16;100692.16;5046196;28;20883;-52
2024/02/14 10:51:06;;;;;;;0.30;0.20;;;;;;;12.71;89.13;100694.03;5052185;28;20478;-52
2024/02/14 10:53:34;;;;;;;0.30;0.20;;;;;;;12.67;89.60;100696.84;5052111;28;20455;-52
2024/02/14 10:56:02;;;;;;;0.30;0.20;;;;;;;12.79;89.26;100690.25;5052429;28;20447;-52
2024/02/14 10:58:30;;;;;;;0.30;0.20;;;;;;;12.65;89.60;100693.34;5052020;28;20533;-52
2024/02/14 11:00:58;;;;;;;0.33;0.20;;;;;;;12.62;90.25;100678.31;5052251;28;20475;-52
2024/02/14 11:03:26;;;;;;;0.30;0.20;;;;;;;12.54;90.45;100677.66;5052132;28;20462;-52
2024/02/14 11:05:53;;;;;;;0.30;0.20;;;;;;;12.50;91.10;100677.81;5052033;28;20939;-52
2024/02/14 11:08:21;;;;;;;0.30;0.20;;;;;;;12.54;91.25;100675.00;5051802;28;20499;-52
2024/02/14 11:10:56;;;;;;;0.30;0.20;;;;;;;12.82;90.61;100675.03;5051654;28;20467;-52
2024/02/14 11:13:30;;;;;;;0.30;0.20;;;;;;;12.90;90.15;100683.66;5052023;28;20435;-52
2024/02/14 11:16:00;;;;;;;0.30;0.20;;;;;;;12.72;90.56;100679.75;5052141;28;20443;-52
2024/02/14 11:18:35;;;;;;;0.30;0.20;;;;;;;12.69;89.98;100673.66;5051721;28;20932;-52
2024/02/14 11:21:04;;;;;;;0.30;0.30;;;;;;;12.71;90.46;100685.16;5051638;28;20839;-51
2024/02/14 11:23:31;;;;;;;0.30;0.30;;;;;;;13.02;90.34;100683.28;5051789;28;20524;-51
2024/02/14 11:26:03;;;;;;;0.30;0.20;;;;;;;12.92;89.50;100689.81;5051660;28;20447;-52
2024/02/14 11:28:30;;;;;;;0.30;0.20;;;;;;;12.70;90.56;100678.06;5051787;28;20486;-52
2024/02/14 11:31:04;;;;;;;0.93;0.93;;;;;;;12.64;90.65;100692.47;5051486;28;20528;-52